createdAt,value
2023-05-09T00:00:32.869Z,1021.5350288080001
2023-05-09T00:01:32.817Z,1021.5350288080001
2023-05-09T00:02:33.067Z,1021.738211536
2023-05-09T00:03:32.845Z,1021.636620172
2023-05-09T00:04:32.943Z,1021.433437444
2023-05-09T00:05:32.833Z,1021.636620172
2023-05-09T00:06:32.851Z,1021.636620172
2023-05-09T00:07:32.826Z,1021.5350288080001
2023-05-09T00:08:32.845Z,1021.33184608
2023-05-09T00:09:32.785Z,1021.636620172
2023-05-09T00:10:32.856Z,1021.636620172
2023-05-09T00:11:32.882Z,1021.5350288080001
2023-05-09T00:12:32.825Z,1021.636620172
2023-05-09T00:13:32.822Z,1021.738211536
2023-05-09T00:14:32.835Z,1021.636620172
2023-05-09T00:15:32.797Z,1021.33184608
2023-05-09T00:16:32.841Z,1021.636620172
2023-05-09T00:17:32.832Z,1021.33184608
2023-05-09T00:18:32.859Z,1021.5350288080001
2023-05-09T00:19:32.817Z,1021.433437444
2023-05-09T00:20:32.815Z,1021.636620172
2023-05-09T00:21:32.892Z,1021.5350288080001
2023-05-09T00:22:32.860Z,1021.33184608
2023-05-09T00:23:32.818Z,1021.5350288080001
2023-05-09T00:24:32.813Z,1021.433437444
2023-05-09T00:25:32.801Z,1021.433437444
2023-05-09T00:26:32.835Z,1021.433437444
2023-05-09T00:27:32.821Z,1021.2302547160001
2023-05-09T00:28:32.785Z,1021.433437444
2023-05-09T00:29:32.797Z,1021.433437444
2023-05-09T00:30:32.762Z,1021.433437444
2023-05-09T00:31:32.869Z,1021.33184608
2023-05-09T00:32:32.879Z,1021.33184608
2023-05-09T00:33:32.794Z,1021.433437444
2023-05-09T00:34:32.842Z,1021.33184608
2023-05-09T00:35:32.854Z,1021.433437444
2023-05-09T00:36:32.821Z,1021.433437444
2023-05-09T00:37:32.836Z,1021.433437444
2023-05-09T00:38:32.835Z,1021.33184608
2023-05-09T00:39:32.843Z,1021.2302547160001
2023-05-09T00:40:32.799Z,1021.2302547160001
2023-05-09T00:41:32.816Z,1021.433437444
2023-05-09T00:42:32.838Z,1021.433437444
2023-05-09T00:43:32.818Z,1021.33184608
2023-05-09T00:44:32.824Z,1021.433437444
2023-05-09T00:45:32.799Z,1021.2302547160001
2023-05-09T00:46:32.913Z,1021.128663352
2023-05-09T00:47:32.826Z,1021.33184608
2023-05-09T00:48:32.817Z,1021.2302547160001
2023-05-09T00:49:32.828Z,1021.33184608
2023-05-09T00:50:32.801Z,1021.33184608
2023-05-09T00:51:32.810Z,1021.2302547160001
2023-05-09T00:52:32.820Z,1021.433437444
2023-05-09T00:53:32.801Z,1021.2302547160001
2023-05-09T00:54:32.862Z,1021.33184608
2023-05-09T00:55:32.811Z,1021.2302547160001
2023-05-09T00:56:32.775Z,1021.2302547160001
2023-05-09T00:57:32.791Z,1021.128663352
2023-05-09T00:58:32.841Z,1021.027071988
2023-05-09T00:59:32.857Z,1021.2302547160001
2023-05-09T01:00:32.794Z,1021.027071988
2023-05-09T01:01:32.890Z,1021.33184608
2023-05-09T01:02:32.941Z,1021.128663352
2023-05-09T01:03:32.950Z,1021.2302547160001
2023-05-09T01:04:32.777Z,1021.027071988
2023-05-09T01:05:32.777Z,1021.128663352
2023-05-09T01:06:32.867Z,1021.027071988
2023-05-09T01:07:32.828Z,1021.33184608
2023-05-09T01:08:32.805Z,1021.2302547160001
2023-05-09T01:09:32.821Z,1021.027071988
2023-05-09T01:10:32.830Z,1021.2302547160001
2023-05-09T01:11:32.815Z,1021.128663352
2023-05-09T01:12:32.827Z,1021.2302547160001
2023-05-09T01:13:32.807Z,1021.2302547160001
2023-05-09T01:14:32.813Z,1021.128663352
2023-05-09T01:15:32.830Z,1021.2302547160001
2023-05-09T01:16:32.803Z,1021.2302547160001
2023-05-09T01:17:32.857Z,1021.2302547160001
2023-05-09T01:18:32.846Z,1021.128663352
2023-05-09T01:19:32.816Z,1020.9254806240001
2023-05-09T01:20:32.826Z,1021.027071988
2023-05-09T01:21:32.811Z,1021.2302547160001
2023-05-09T01:22:32.829Z,1021.128663352
2023-05-09T01:23:32.833Z,1021.2302547160001
2023-05-09T01:24:32.816Z,1021.027071988
2023-05-09T01:25:32.929Z,1020.9254806240001
2023-05-09T01:26:32.833Z,1021.027071988
2023-05-09T01:27:32.848Z,1021.027071988
2023-05-09T01:28:32.816Z,1021.128663352
2023-05-09T01:29:32.831Z,1021.027071988
2023-05-09T01:30:32.798Z,1021.027071988
2023-05-09T01:31:32.837Z,1021.128663352
2023-05-09T01:32:32.817Z,1021.128663352
2023-05-09T01:33:32.830Z,1021.027071988
2023-05-09T01:34:32.824Z,1021.027071988
2023-05-09T01:35:32.872Z,1021.128663352
2023-05-09T01:36:32.802Z,1020.9254806240001
2023-05-09T01:37:32.845Z,1020.9254806240001
2023-05-09T01:38:32.845Z,1020.9254806240001
2023-05-09T01:39:32.831Z,1021.027071988
2023-05-09T01:40:32.958Z,1021.2302547160001
2023-05-09T01:41:32.973Z,1021.027071988
2023-05-09T01:42:32.919Z,1020.9254806240001
2023-05-09T01:43:32.920Z,1021.128663352
2023-05-09T01:44:32.980Z,1020.82388926
2023-05-09T01:45:32.973Z,1021.128663352
2023-05-09T01:46:33.048Z,1021.027071988
2023-05-09T01:47:32.968Z,1021.027071988
2023-05-09T01:48:32.883Z,1020.9254806240001
2023-05-09T01:49:32.976Z,1021.027071988
2023-05-09T01:50:32.936Z,1020.82388926
2023-05-09T01:51:32.922Z,1021.027071988
2023-05-09T01:52:32.932Z,1020.9254806240001
2023-05-09T01:53:32.916Z,1020.9254806240001
2023-05-09T01:54:33.030Z,1020.9254806240001
2023-05-09T01:55:32.953Z,1021.027071988
2023-05-09T01:56:32.911Z,1020.9254806240001
2023-05-09T01:57:32.996Z,1021.2302547160001
2023-05-09T01:58:32.863Z,1020.9254806240001
2023-05-09T01:59:32.812Z,1021.027071988
2023-05-09T02:00:32.835Z,1020.9254806240001
2023-05-09T02:01:32.806Z,1021.027071988
2023-05-09T02:02:32.939Z,1021.027071988
2023-05-09T02:03:32.997Z,1020.9254806240001
2023-05-09T02:04:32.835Z,1020.82388926
2023-05-09T02:05:32.811Z,1021.128663352
2023-05-09T02:06:32.829Z,1020.9254806240001
2023-05-09T02:07:32.818Z,1020.9254806240001
2023-05-09T02:08:32.877Z,1020.722297896
2023-05-09T02:09:32.859Z,1020.9254806240001
2023-05-09T02:10:32.818Z,1020.722297896
2023-05-09T02:11:32.816Z,1020.82388926
2023-05-09T02:12:32.805Z,1020.9254806240001
2023-05-09T02:13:32.790Z,1021.128663352
2023-05-09T02:14:32.816Z,1020.722297896
2023-05-09T02:15:32.808Z,1021.128663352
2023-05-09T02:16:32.828Z,1020.9254806240001
2023-05-09T02:17:32.849Z,1020.82388926
2023-05-09T02:18:32.838Z,1020.82388926
2023-05-09T02:19:32.821Z,1020.9254806240001
2023-05-09T02:20:32.786Z,1020.722297896
2023-05-09T02:21:32.779Z,1021.027071988
2023-05-09T02:22:32.805Z,1020.82388926
2023-05-09T02:23:32.791Z,1020.9254806240001
2023-05-09T02:24:32.797Z,1020.722297896
2023-05-09T02:25:32.815Z,1020.9254806240001
2023-05-09T02:26:32.826Z,1021.027071988
2023-05-09T02:27:32.799Z,1020.722297896
2023-05-09T02:28:32.794Z,1020.9254806240001
2023-05-09T02:29:32.804Z,1020.9254806240001
2023-05-09T02:30:32.767Z,1020.82388926
2023-05-09T02:31:32.837Z,1020.82388926
2023-05-09T02:32:32.816Z,1020.82388926
2023-05-09T02:33:32.781Z,1020.722297896
2023-05-09T02:34:32.791Z,1020.82388926
2023-05-09T02:35:32.819Z,1020.722297896
2023-05-09T02:36:32.821Z,1020.82388926
2023-05-09T02:37:32.769Z,1020.9254806240001
2023-05-09T02:38:32.838Z,1020.6207065319999
2023-05-09T02:39:32.791Z,1020.722297896
2023-05-09T02:40:32.864Z,1020.82388926
2023-05-09T02:41:32.785Z,1020.722297896
2023-05-09T02:42:32.846Z,1020.722297896
2023-05-09T02:43:32.808Z,1020.82388926
2023-05-09T02:44:32.817Z,1020.82388926
2023-05-09T02:45:32.802Z,1020.82388926
2023-05-09T02:46:33.002Z,1020.722297896
2023-05-09T02:47:32.820Z,1021.027071988
2023-05-09T02:48:32.823Z,1020.722297896
2023-05-09T02:49:32.932Z,1020.82388926
2023-05-09T02:50:32.805Z,1020.9254806240001
2023-05-09T02:51:32.804Z,1020.6207065319999
2023-05-09T02:52:32.805Z,1020.722297896
2023-05-09T02:53:32.787Z,1020.82388926
2023-05-09T02:54:32.819Z,1020.82388926
2023-05-09T02:55:32.804Z,1020.82388926
2023-05-09T02:56:32.968Z,1020.82388926
2023-05-09T02:57:32.813Z,1020.722297896
2023-05-09T02:58:32.811Z,1020.722297896
2023-05-09T02:59:32.804Z,1020.519115168
2023-05-09T03:00:32.805Z,1020.722297896
2023-05-09T03:01:32.818Z,1020.82388926
2023-05-09T03:02:32.884Z,1020.9254806240001
2023-05-09T03:03:32.971Z,1020.6207065319999
2023-05-09T03:04:32.813Z,1020.82388926
2023-05-09T03:05:32.952Z,1020.722297896
2023-05-09T03:06:32.898Z,1020.519115168
2023-05-09T03:07:32.870Z,1020.82388926
2023-05-09T03:08:32.882Z,1020.6207065319999
2023-05-09T03:09:32.785Z,1020.6207065319999
2023-05-09T03:10:32.925Z,1020.722297896
2023-05-09T03:11:32.819Z,1020.6207065319999
2023-05-09T03:12:32.933Z,1020.6207065319999
2023-05-09T03:13:32.904Z,1020.6207065319999
2023-05-09T03:14:32.962Z,1020.82388926
2023-05-09T03:15:32.861Z,1020.82388926
2023-05-09T03:16:32.828Z,1020.6207065319999
2023-05-09T03:17:32.844Z,1020.82388926
2023-05-09T03:18:32.806Z,1020.6207065319999
2023-05-09T03:19:32.880Z,1020.417523804
2023-05-09T03:20:32.799Z,1020.6207065319999
2023-05-09T03:21:32.871Z,1020.722297896
2023-05-09T03:22:32.857Z,1020.6207065319999
2023-05-09T03:23:32.971Z,1020.6207065319999
2023-05-09T03:24:32.982Z,1020.6207065319999
2023-05-09T03:25:32.887Z,1020.6207065319999
2023-05-09T03:26:32.910Z,1020.519115168
2023-05-09T03:27:32.943Z,1020.6207065319999
2023-05-09T03:28:32.877Z,1020.6207065319999
2023-05-09T03:29:32.785Z,1020.722297896
2023-05-09T03:30:32.874Z,1020.519115168
2023-05-09T03:31:33.074Z,1020.519115168
2023-05-09T03:32:32.887Z,1020.6207065319999
2023-05-09T03:33:32.893Z,1020.82388926
2023-05-09T03:34:32.864Z,1020.6207065319999
2023-05-09T03:35:32.790Z,1020.519115168
2023-05-09T03:36:32.812Z,1020.519115168
2023-05-09T03:37:32.825Z,1020.6207065319999
2023-05-09T03:38:32.953Z,1020.82388926
2023-05-09T03:39:32.997Z,1020.6207065319999
2023-05-09T03:40:32.907Z,1020.519115168
2023-05-09T03:41:32.892Z,1020.82388926
2023-05-09T03:42:32.854Z,1020.722297896
2023-05-09T03:43:32.941Z,1020.519115168
2023-05-09T03:44:32.929Z,1020.519115168
2023-05-09T03:45:32.798Z,1020.417523804
2023-05-09T03:46:32.871Z,1020.3159324399999
2023-05-09T03:47:32.964Z,1020.722297896
2023-05-09T03:48:32.822Z,1020.6207065319999
2023-05-09T03:49:32.841Z,1020.519115168
2023-05-09T03:50:32.785Z,1020.3159324399999
2023-05-09T03:51:32.823Z,1020.519115168
2023-05-09T03:52:32.796Z,1020.417523804
2023-05-09T03:53:32.783Z,1020.519115168
2023-05-09T03:54:32.862Z,1020.519115168
2023-05-09T03:55:32.829Z,1020.417523804
2023-05-09T03:56:32.811Z,1020.519115168
2023-05-09T03:57:32.794Z,1020.417523804
2023-05-09T03:58:32.796Z,1020.519115168
2023-05-09T03:59:32.829Z,1020.417523804
2023-05-09T04:00:32.808Z,1020.417523804
2023-05-09T04:01:32.953Z,1020.417523804
2023-05-09T04:02:32.889Z,1020.6207065319999
2023-05-09T04:03:32.943Z,1020.6207065319999
2023-05-09T04:04:32.806Z,1020.519115168
2023-05-09T04:05:32.813Z,1020.417523804
2023-05-09T04:06:32.789Z,1020.3159324399999
2023-05-09T04:07:32.790Z,1020.519115168
2023-05-09T04:08:32.802Z,1020.519115168
2023-05-09T04:09:32.922Z,1020.519115168
2023-05-09T04:10:32.789Z,1020.519115168
2023-05-09T04:11:32.824Z,1020.214341076
2023-05-09T04:12:32.799Z,1020.3159324399999
2023-05-09T04:13:32.792Z,1020.417523804
2023-05-09T04:14:32.789Z,1020.519115168
2023-05-09T04:15:32.818Z,1020.417523804
2023-05-09T04:16:32.835Z,1020.417523804
2023-05-09T04:17:32.864Z,1020.417523804
2023-05-09T04:18:32.780Z,1020.519115168
2023-05-09T04:19:32.831Z,1020.417523804
2023-05-09T04:20:32.800Z,1020.519115168
2023-05-09T04:21:32.806Z,1020.3159324399999
2023-05-09T04:22:32.822Z,1020.417523804
2023-05-09T04:23:32.800Z,1020.3159324399999
2023-05-09T04:24:32.782Z,1020.417523804
2023-05-09T04:25:32.785Z,1020.519115168
2023-05-09T04:26:32.931Z,1020.417523804
2023-05-09T04:27:32.830Z,1020.519115168
2023-05-09T04:28:32.824Z,1020.417523804
2023-05-09T04:29:32.805Z,1020.417523804
2023-05-09T04:30:32.868Z,1020.6207065319999
2023-05-09T04:31:32.882Z,1020.519115168
2023-05-09T04:32:32.856Z,1020.519115168
2023-05-09T04:33:32.788Z,1020.519115168
2023-05-09T04:34:32.790Z,1020.6207065319999
2023-05-09T04:35:32.817Z,1020.417523804
2023-05-09T04:36:32.856Z,1020.519115168
2023-05-09T04:37:32.844Z,1020.417523804
2023-05-09T04:38:32.858Z,1020.417523804
2023-05-09T04:39:32.786Z,1020.6207065319999
2023-05-09T04:40:32.800Z,1020.519115168
2023-05-09T04:41:32.880Z,1020.519115168
2023-05-09T04:42:32.758Z,1020.417523804
2023-05-09T04:43:32.871Z,1020.3159324399999
2023-05-09T04:44:32.819Z,1020.417523804
2023-05-09T04:45:32.798Z,1020.519115168
2023-05-09T04:46:32.877Z,1020.519115168
2023-05-09T04:47:32.822Z,1020.3159324399999
2023-05-09T04:48:32.813Z,1020.3159324399999
2023-05-09T04:49:32.820Z,1020.519115168
2023-05-09T04:50:32.833Z,1020.3159324399999
2023-05-09T04:51:32.801Z,1020.417523804
2023-05-09T04:52:32.820Z,1020.3159324399999
2023-05-09T04:53:32.836Z,1020.519115168
2023-05-09T04:54:32.772Z,1020.214341076
2023-05-09T04:55:32.810Z,1020.3159324399999
2023-05-09T04:56:32.820Z,1020.417523804
2023-05-09T04:57:32.818Z,1020.214341076
2023-05-09T04:58:32.788Z,1020.417523804
2023-05-09T04:59:32.819Z,1020.519115168
2023-05-09T05:00:32.838Z,1020.3159324399999
2023-05-09T05:01:32.840Z,1020.417523804
2023-05-09T05:02:32.856Z,1020.3159324399999
2023-05-09T05:03:32.811Z,1020.417523804
2023-05-09T05:04:32.836Z,1020.519115168
2023-05-09T05:05:34.513Z,1020.722297896
2023-05-09T05:06:32.966Z,1020.722297896
2023-05-09T05:07:32.817Z,1020.417523804
2023-05-09T05:08:33.027Z,1020.417523804
2023-05-09T05:09:32.829Z,1020.417523804
2023-05-09T05:10:32.789Z,1020.417523804
2023-05-09T05:11:32.778Z,1020.3159324399999
2023-05-09T05:12:32.819Z,1020.417523804
2023-05-09T05:13:33.887Z,1020.3159324399999
2023-05-09T05:14:39.359Z,1020.417523804
2023-05-09T05:15:43.364Z,1020.3159324399999
2023-05-09T05:16:47.431Z,1020.417523804
2023-05-09T05:17:51.532Z,1020.417523804
2023-05-09T05:18:55.371Z,1020.519115168
2023-05-09T05:19:59.338Z,1020.519115168
2023-05-09T05:21:03.353Z,1020.417523804
2023-05-09T05:22:07.384Z,1020.519115168
2023-05-09T05:23:11.386Z,1020.417523804
2023-05-09T05:24:16.364Z,1020.3159324399999
2023-05-09T05:25:19.381Z,1020.3159324399999
2023-05-09T05:26:23.340Z,1020.3159324399999
2023-05-09T05:27:27.375Z,1020.3159324399999
2023-05-09T05:28:31.326Z,1020.417523804
2023-05-09T05:29:32.835Z,1020.214341076
2023-05-09T05:30:34.205Z,1020.3159324399999
2023-05-09T05:31:32.832Z,1020.3159324399999
2023-05-09T05:32:32.846Z,1020.417523804
2023-05-09T05:33:32.848Z,1020.417523804
2023-05-09T05:34:32.822Z,1020.519115168
2023-05-09T05:35:32.897Z,1020.417523804
2023-05-09T05:36:32.791Z,1020.417523804
2023-05-09T05:37:32.792Z,1020.3159324399999
2023-05-09T05:38:32.797Z,1020.3159324399999
2023-05-09T05:39:32.790Z,1020.417523804
2023-05-09T05:40:32.787Z,1020.214341076
2023-05-09T05:41:32.813Z,1020.519115168
2023-05-09T05:42:32.810Z,1020.214341076
2023-05-09T05:43:32.796Z,1020.417523804
2023-05-09T05:44:32.786Z,1020.417523804
2023-05-09T05:45:32.846Z,1020.417523804
2023-05-09T05:46:32.800Z,1020.3159324399999
2023-05-09T05:47:32.820Z,1020.417523804
2023-05-09T05:48:32.782Z,1020.417523804
2023-05-09T05:49:32.857Z,1020.6207065319999
2023-05-09T05:50:32.862Z,1020.417523804
2023-05-09T05:51:32.837Z,1020.417523804
2023-05-09T05:52:32.785Z,1020.3159324399999
2023-05-09T05:53:32.936Z,1020.519115168
2023-05-09T05:54:32.823Z,1020.417523804
2023-05-09T05:55:32.783Z,1020.519115168
2023-05-09T05:56:32.786Z,1020.519115168
2023-05-09T05:57:32.749Z,1020.417523804
2023-05-09T05:58:32.874Z,1020.3159324399999
2023-05-09T05:59:32.845Z,1020.417523804
2023-05-09T06:00:32.808Z,1020.519115168
2023-05-09T06:01:32.774Z,1020.519115168
2023-05-09T06:02:32.894Z,1020.519115168
2023-05-09T06:03:32.920Z,1020.417523804
2023-05-09T06:04:32.826Z,1020.3159324399999
2023-05-09T06:05:32.751Z,1020.112749712
2023-05-09T06:06:32.848Z,1020.3159324399999
2023-05-09T06:07:32.771Z,1020.3159324399999
2023-05-09T06:08:32.833Z,1020.3159324399999
2023-05-09T06:09:32.773Z,1020.519115168
2023-05-09T06:10:32.875Z,1020.112749712
2023-05-09T06:11:32.757Z,1020.214341076
2023-05-09T06:12:32.797Z,1020.0111583479999
2023-05-09T06:13:32.764Z,1020.417523804
2023-05-09T06:14:32.781Z,1020.417523804
2023-05-09T06:15:32.800Z,1020.112749712
2023-05-09T06:16:32.822Z,1020.214341076
2023-05-09T06:17:32.790Z,1020.417523804
2023-05-09T06:18:32.822Z,1020.3159324399999
2023-05-09T06:19:32.777Z,1020.3159324399999
2023-05-09T06:20:32.780Z,1020.214341076
2023-05-09T06:21:32.816Z,1020.112749712
2023-05-09T06:22:32.805Z,1020.3159324399999
2023-05-09T06:23:32.775Z,1020.3159324399999
2023-05-09T06:24:36.191Z,1020.112749712
2023-05-09T06:25:32.769Z,1020.214341076
2023-05-09T06:26:32.813Z,1020.214341076
2023-05-09T06:27:32.817Z,1020.3159324399999
2023-05-09T06:28:32.815Z,1020.0111583479999
2023-05-09T06:29:32.783Z,1020.112749712
2023-05-09T06:30:32.862Z,1020.214341076
2023-05-09T06:31:32.819Z,1020.0111583479999
2023-05-09T06:32:32.891Z,1020.112749712
2023-05-09T06:33:32.798Z,1020.3159324399999
2023-05-09T06:34:32.750Z,1020.0111583479999
2023-05-09T06:35:32.788Z,1020.214341076
2023-05-09T06:36:32.850Z,1020.3159324399999
2023-05-09T06:37:32.837Z,1020.112749712
2023-05-09T06:38:32.772Z,1020.0111583479999
2023-05-09T06:39:32.779Z,1019.909566984
2023-05-09T06:40:32.791Z,1020.112749712
2023-05-09T06:41:32.826Z,1019.909566984
2023-05-09T06:42:32.770Z,1020.112749712
2023-05-09T06:43:32.769Z,1019.909566984
2023-05-09T06:44:32.791Z,1020.0111583479999
2023-05-09T06:45:32.806Z,1019.909566984
2023-05-09T06:46:32.825Z,1020.214341076
2023-05-09T06:47:32.806Z,1020.112749712
2023-05-09T06:48:32.784Z,1020.214341076
2023-05-09T06:49:32.785Z,1019.909566984
2023-05-09T06:50:33.124Z,1019.909566984
2023-05-09T06:51:32.812Z,1019.909566984
2023-05-09T06:52:32.802Z,1020.112749712
2023-05-09T06:53:32.786Z,1020.112749712
2023-05-09T06:54:32.756Z,1020.0111583479999
2023-05-09T06:55:32.837Z,1019.80797562
2023-05-09T06:56:32.792Z,1020.112749712
2023-05-09T06:57:32.841Z,1020.0111583479999
2023-05-09T06:58:32.774Z,1020.112749712
2023-05-09T06:59:33.018Z,1020.112749712
2023-05-09T07:00:32.816Z,1019.909566984
2023-05-09T07:01:32.836Z,1020.112749712
2023-05-09T07:02:32.895Z,1020.112749712
2023-05-09T07:03:32.766Z,1020.112749712
2023-05-09T07:04:32.845Z,1020.112749712
2023-05-09T07:05:32.976Z,1020.0111583479999
2023-05-09T07:06:32.812Z,1020.112749712
2023-05-09T07:07:32.800Z,1020.0111583479999
2023-05-09T07:08:32.807Z,1020.214341076
2023-05-09T07:09:32.816Z,1019.80797562
2023-05-09T07:10:32.769Z,1019.80797562
2023-05-09T07:11:32.781Z,1019.909566984
2023-05-09T07:12:32.766Z,1020.0111583479999
2023-05-09T07:13:32.832Z,1020.0111583479999
2023-05-09T07:14:32.810Z,1020.112749712
2023-05-09T07:15:41.181Z,1020.112749712
2023-05-09T07:16:34.109Z,1019.909566984
2023-05-09T07:17:32.886Z,1019.909566984
2023-05-09T07:18:32.779Z,1020.0111583479999
2023-05-09T07:19:32.817Z,1019.909566984
2023-05-09T07:20:32.814Z,1020.0111583479999
2023-05-09T07:21:32.806Z,1019.80797562
2023-05-09T07:22:34.786Z,1019.80797562
2023-05-09T07:23:32.844Z,1020.112749712
2023-05-09T07:24:32.785Z,1019.80797562
2023-05-09T07:25:32.798Z,1019.80797562
2023-05-09T07:26:32.859Z,1019.740248044
2023-05-09T07:27:32.794Z,1019.80797562
2023-05-09T07:28:32.806Z,1019.6386566799999
2023-05-09T07:29:32.838Z,1019.740248044
2023-05-09T07:30:32.753Z,1019.80797562
2023-05-09T07:31:35.154Z,1019.740248044
2023-05-09T07:32:32.813Z,1020.0111583479999
2023-05-09T07:33:32.804Z,1019.909566984
2023-05-09T07:34:32.762Z,1019.80797562
2023-05-09T07:35:32.763Z,1019.740248044
2023-05-09T07:36:34.738Z,1019.6386566799999
2023-05-09T07:37:32.821Z,1019.6386566799999
2023-05-09T07:38:32.871Z,1019.6386566799999
2023-05-09T07:39:32.825Z,1019.740248044
2023-05-09T07:40:32.799Z,1019.740248044
2023-05-09T07:41:32.796Z,1019.6386566799999
2023-05-09T07:42:32.790Z,1019.740248044
2023-05-09T07:43:32.753Z,1019.6386566799999
2023-05-09T07:44:32.807Z,1019.5370653159999
2023-05-09T07:45:32.854Z,1019.3338825879999
2023-05-09T07:46:32.781Z,1019.6386566799999
2023-05-09T07:47:32.839Z,1019.5370653159999
2023-05-09T07:48:32.825Z,1019.80797562
2023-05-09T07:49:32.758Z,1019.80797562
2023-05-09T07:50:32.807Z,1019.80797562
2023-05-09T07:51:32.813Z,1019.80797562
2023-05-09T07:52:32.907Z,1019.740248044
2023-05-09T07:53:32.757Z,1019.740248044
2023-05-09T07:54:32.818Z,1019.740248044
2023-05-09T07:55:32.765Z,1019.435473952
2023-05-09T07:56:32.791Z,1019.5370653159999
2023-05-09T07:57:32.871Z,1019.80797562
2023-05-09T07:58:32.797Z,1019.80797562
2023-05-09T07:59:32.807Z,1019.5370653159999
2023-05-09T08:00:32.769Z,1019.6386566799999
2023-05-09T08:01:32.806Z,1019.6386566799999
2023-05-09T08:02:32.919Z,1019.5370653159999
2023-05-09T08:03:32.966Z,1019.5370653159999
2023-05-09T08:04:32.922Z,1019.6386566799999
2023-05-09T08:05:32.770Z,1019.5370653159999
2023-05-09T08:06:32.772Z,1019.5370653159999
2023-05-09T08:07:32.805Z,1019.6386566799999
2023-05-09T08:08:32.772Z,1019.6386566799999
2023-05-09T08:09:32.778Z,1019.5370653159999
2023-05-09T08:10:32.772Z,1019.5370653159999
2023-05-09T08:11:32.779Z,1019.6386566799999
2023-05-09T08:12:32.796Z,1019.740248044
2023-05-09T08:13:32.759Z,1019.6386566799999
2023-05-09T08:14:32.816Z,1019.6386566799999
2023-05-09T08:15:32.762Z,1019.5370653159999
2023-05-09T08:16:32.872Z,1019.5370653159999
2023-05-09T08:17:32.847Z,1019.435473952
2023-05-09T08:18:32.800Z,1019.5370653159999
2023-05-09T08:19:32.732Z,1019.5370653159999
2023-05-09T08:20:32.787Z,1019.6386566799999
2023-05-09T08:21:32.804Z,1019.3338825879999
2023-05-09T08:22:32.771Z,1019.5370653159999
2023-05-09T08:23:32.769Z,1019.5370653159999
2023-05-09T08:24:32.813Z,1019.6386566799999
2023-05-09T08:25:32.787Z,1019.435473952
2023-05-09T08:26:32.779Z,1019.435473952
2023-05-09T08:27:32.772Z,1019.6386566799999
2023-05-09T08:28:32.810Z,1019.5370653159999
2023-05-09T08:29:32.839Z,1019.2322912239999
2023-05-09T08:30:32.753Z,1019.2322912239999
2023-05-09T08:31:32.903Z,1019.3338825879999
2023-05-09T08:32:32.849Z,1019.2322912239999
2023-05-09T08:33:32.771Z,1019.1306998599998
2023-05-09T08:34:32.754Z,1019.0291084959999
2023-05-09T08:35:32.791Z,1019.3338825879999
2023-05-09T08:36:32.742Z,1019.3338825879999
2023-05-09T08:37:32.779Z,1019.435473952
2023-05-09T08:38:32.807Z,1019.435473952
2023-05-09T08:39:32.805Z,1019.3338825879999
2023-05-09T08:40:32.755Z,1019.2322912239999
2023-05-09T08:41:32.795Z,1019.2322912239999
2023-05-09T08:42:32.750Z,1019.2322912239999
2023-05-09T08:43:32.796Z,1019.3338825879999
2023-05-09T08:44:32.772Z,1019.435473952
2023-05-09T08:45:32.795Z,1019.3338825879999
2023-05-09T08:46:32.820Z,1019.0291084959999
2023-05-09T08:47:32.807Z,1019.0291084959999
2023-05-09T08:48:35.865Z,1019.1306998599998
2023-05-09T08:49:32.799Z,1019.1306998599998
2023-05-09T08:50:32.782Z,1019.3338825879999
2023-05-09T08:51:32.792Z,1019.0291084959999
2023-05-09T08:52:32.752Z,1019.0291084959999
2023-05-09T08:53:32.810Z,1019.2322912239999
2023-05-09T08:54:32.753Z,1019.0291084959999
2023-05-09T08:55:32.817Z,1019.0291084959999
2023-05-09T08:56:32.835Z,1019.1306998599998
2023-05-09T08:57:32.898Z,1019.1306998599998
2023-05-09T08:58:32.779Z,1019.2322912239999
2023-05-09T08:59:32.804Z,1018.9275171319999
2023-05-09T09:00:32.783Z,1019.2322912239999
2023-05-09T09:01:32.826Z,1019.2322912239999
2023-05-09T09:02:32.796Z,1019.2322912239999
2023-05-09T09:03:32.791Z,1019.0291084959999
2023-05-09T09:04:32.821Z,1019.1306998599998
2023-05-09T09:05:41.159Z,1019.0291084959999
2023-05-09T09:06:32.786Z,1019.1306998599998
2023-05-09T09:07:32.797Z,1019.3338825879999
2023-05-09T09:08:32.775Z,1019.3338825879999
2023-05-09T09:09:32.800Z,1019.2322912239999
2023-05-09T09:10:32.813Z,1019.1306998599998
2023-05-09T09:11:32.849Z,1019.2322912239999
2023-05-09T09:12:32.781Z,1019.2322912239999
2023-05-09T09:13:32.891Z,1019.1306998599998
2023-05-09T09:14:32.787Z,1018.7243344039999
2023-05-09T09:15:32.885Z,1018.9275171319999
2023-05-09T09:16:32.786Z,1019.0291084959999
2023-05-09T09:17:32.793Z,1019.1306998599998
2023-05-09T09:18:32.758Z,1018.9275171319999
2023-05-09T09:19:32.818Z,1019.1306998599998
2023-05-09T09:20:32.771Z,1019.0291084959999
2023-05-09T09:21:32.819Z,1018.7243344039999
2023-05-09T09:22:32.774Z,1019.0291084959999
2023-05-09T09:23:32.791Z,1018.9275171319999
2023-05-09T09:24:32.775Z,1019.0291084959999
2023-05-09T09:25:32.754Z,1018.9275171319999
2023-05-09T09:26:32.754Z,1019.0291084959999
2023-05-09T09:27:32.792Z,1018.8259257679998
2023-05-09T09:28:32.732Z,1018.7243344039999
2023-05-09T09:29:32.776Z,1018.9275171319999
2023-05-09T09:30:32.776Z,1018.8259257679998
2023-05-09T09:31:32.808Z,1018.8259257679998
2023-05-09T09:32:32.835Z,1018.7243344039999
2023-05-09T09:33:32.789Z,1018.7243344039999
2023-05-09T09:34:32.833Z,1018.9275171319999
2023-05-09T09:35:32.762Z,1018.9275171319999
2023-05-09T09:36:32.846Z,1019.0291084959999
2023-05-09T09:37:32.754Z,1018.8259257679998